Latest Weather Observations for Cape Moreton

IDQ60801

Issued at 8:02 pm EST Sunday 26 February 2017 (issued every 30 minutes, with the page automatically refreshed every 10 minutes)

About weather observations | Map of weather stations | Latest weather observations for QLD | Other Formats
Station Details ID: 040043 Name: CAPE MORETON LIGHTHOUSE Lat: -27.03 Lon: 153.47 Height: 99.9 m
Data from the previous 72 hours. | See also: Recent months at Cape Moreton
Date/Time
EST
Temp
°C
App
Temp
°C
Dew
Point
°C
Rel
Hum
%
Delta-T
°C
Wind Press
QNH
hPa
Press
MSL
hPa
Rain since
9am
mm
Dir  Spd
km/h
Gust
km/h
Spd
kts
Gust
kts
26/07:30pm 24.2 19.1 19.1 73 3.3 SE 44 59 24 32 1015.9 1015.4 0.0
26/07:00pm 24.9 18.9 19.5 72 3.5 SE 50 57 27 31 1015.5 1015.0 0.0
26/06:30pm 25.0 18.9 18.4 66 4.2 ESE 48 59 26 32 1014.6 1014.0 0.0
26/06:00pm 25.1 18.9 18.3 66 4.3 SE 48 57 26 31 1014.9 1014.3 0.0
26/05:30pm 25.2 19.2 18.6 67 4.2 SE 48 56 26 30 1014.7 1014.1 0.0
26/05:00pm 25.4 20.0 19.1 68 4.0 SE 46 56 25 30 1014.6 1014.0 0.0
26/04:30pm 25.6 20.1 19.0 67 4.2 SE 46 56 25 30 1014.6 1014.0 0.0
26/04:00pm 25.9 19.6 18.8 65 4.5 SE 50 59 27 32 1014.4 1013.8 0.0
26/03:30pm 25.8 20.5 19.4 67 4.1 SE 46 54 25 29 1014.3 1013.7 0.0
26/03:00pm 26.2 21.6 19.6 67 4.3 SE 43 52 23 28 1014.5 1013.9 0.0
26/02:30pm 27.2 23.0 19.8 64 4.8 SE 41 50 22 27 1014.6 1014.0 0.0
26/02:00pm 26.7 21.3 17.8 58 5.6 SE 43 50 23 27 1014.8 1014.2 0.0
26/01:30pm 26.9 21.8 18.5 60 5.4 SE 43 50 23 27 1015.0 1014.4 0.0
26/01:00pm 25.8 21.8 20.1 71 3.7 SE 41 50 22 27 1015.4 1014.9 0.0
26/12:30pm 25.5 22.1 19.9 71 3.6 SE 37 46 20 25 1015.6 1015.1 0.0
26/12:00pm 26.2 22.6 19.3 65 4.5 SE 37 44 20 24 1015.7 1015.2 0.0
26/11:30am 28.4 26.3 20.9 64 5.0 SE 33 41 18 22 1015.8 1015.3 0.0
26/11:00am 27.7 25.1 19.5 61 5.3 SE 32 37 17 20 1016.0 1015.5 0.0
26/10:30am 28.7 26.4 20.2 60 5.6 SE 32 35 17 19 1016.0 1015.5 0.0
26/10:00am 28.0 25.9 19.8 61 5.4 ESE 30 33 16 18 1016.0 1015.5 0.0
26/09:30am 27.2 24.6 19.5 62 5.0 ESE 32 35 17 19 1015.8 1015.3 0.0
26/09:00am 27.6 25.1 19.7 62 5.2 ESE 32 37 17 20 1015.8 1015.3 0.0
26/08:30am 26.5 23.7 19.1 64 4.8 ESE 32 35 17 19 1015.6 1015.1 0.0
26/08:00am 27.1 24.7 19.2 62 5.1 ESE 30 35 16 19 1015.7 1015.2 0.0
26/07:30am 26.9 24.8 19.8 65 4.6 SE 30 33 16 18 1015.1 1014.6 0.0
26/07:00am 26.0 23.8 19.6 68 4.1 ESE 30 33 16 18 1015.1 1014.6 0.0
26/06:30am 25.0 23.6 20.5 76 2.9 ESE 28 33 15 18 1014.7 1014.1 0.0
26/06:00am 24.5 21.9 19.6 74 3.2 ESE 32 37 17 20 1014.3 1013.7 0.0
26/05:30am 24.3 21.3 19.8 76 2.9 ESE 35 41 19 22 1013.8 1013.2 0.0
26/05:00am 24.2 21.6 19.9 77 2.8 ESE 33 41 18 22 1013.7 1013.1 0.0
26/04:30am 24.2 21.8 20.3 79 2.5 ESE 33 41 18 22 1013.5 1012.9 0.0
26/04:00am 24.2 21.7 20.1 78 2.7 ESE 33 41 18 22 1013.4 1012.8 0.0
26/03:30am 24.2 20.8 19.9 77 2.8 SE 37 43 20 23 1013.2 1012.6 0.0
26/03:00am 24.3 20.6 20.0 77 2.8 SE 39 46 21 25 1013.2 1012.6 0.0
26/02:30am 24.3 19.5 18.5 70 3.7 SE 41 48 22 26 1013.1 1012.5 0.0
26/02:00am 24.5 20.2 19.6 74 3.2 SE 41 46 22 25 1013.2 1012.6 0.0
26/01:30am 24.5 20.8 20.0 76 2.9 SE 39 44 21 24 1013.5 1012.9 0.0
26/01:00am 24.6 21.1 20.3 77 2.8 SE 39 46 21 25 1014.0 1013.4 0.0
26/12:30am 24.5 19.7 19.3 73 3.3 SE 43 52 23 28 1014.2 1013.6 0.0
26/12:00am 24.4 20.9 20.3 78 2.7 SE 39 50 21 27 1014.6 1014.0 0.0
 
Date/Time
EST
Temp
°C
App
Temp
°C
Dew
Point
°C
Rel
Hum
%
Delta-T
°C
Wind Press
QNH
hPa
Press
MSL
hPa
Rain since
9am
mm
Dir  Spd
km/h
Gust
km/h
Spd
kts
Gust
kts
25/11:30pm 24.2 20.7 20.3 79 2.5 SE 39 44 21 24 1015.2 1014.7 0.0
25/11:00pm 23.9 19.4 19.8 78 2.6 SE 43 50 23 27 1015.5 1015.0 0.0
25/10:30pm 24.2 19.8 20.1 78 2.7 SE 43 50 23 27 1015.4 1014.9 0.0
25/10:00pm 24.3 20.8 20.4 79 2.5 SE 39 48 21 26 1015.5 1015.0 0.0
25/09:30pm 24.6 19.6 20.1 76 2.9 SE 46 54 25 29 1015.4 1014.9 0.0
25/09:00pm 24.6 20.0 20.1 76 2.9 SE 44 52 24 28 1015.3 1014.8 0.0
25/08:30pm 24.8 19.0 19.2 71 3.6 SE 48 57 26 31 1015.1 1014.6 0.0
25/08:00pm 25.0 18.7 18.9 69 3.9 SE 50 59 27 32 1014.8 1014.2 0.0
25/07:30pm 25.0 17.7 18.4 66 4.2 SE 54 65 29 35 1014.5 1013.9 0.0
25/07:00pm 24.8 19.3 19.0 70 3.7 SE 46 56 25 30 1014.2 1013.6 0.0
25/06:30pm 24.8 18.4 18.7 69 3.9 SE 50 57 27 31 1013.8 1013.2 0.0
25/06:00pm 25.0 19.7 19.4 71 3.6 ESE 46 56 25 30 1013.7 1013.1 0.0
25/05:30pm 25.3 20.1 19.7 71 3.6 SE 46 54 25 29 1013.7 1013.1 0.0
25/05:00pm 25.5 21.2 20.3 73 3.4 SE 43 50 23 27 1013.6 1013.0 0.0
25/04:30pm 25.5 20.8 19.4 69 3.9 SE 43 54 23 29 1013.6 1013.0 0.0
25/04:00pm 25.9 21.4 20.0 70 3.8 SE 43 54 23 29 1013.5 1012.9 0.0
25/03:30pm 26.1 21.6 20.0 69 4.0 SE 43 48 23 26 1013.5 1012.9 0.0
25/03:00pm 26.6 22.8 19.7 66 4.5 SE 39 46 21 25 1013.8 1013.2 0.0
25/02:30pm 26.5 22.7 18.9 63 4.9 SE 37 44 20 24 1014.1 1013.5 0.0
25/02:00pm 26.9 23.6 19.3 63 4.9 SE 35 43 19 23 1014.5 1013.9 0.0
25/01:30pm 27.2 23.0 19.0 61 5.3 SE 39 44 21 24 1014.9 1014.3 0.0
25/01:00pm 27.2 23.6 19.3 62 5.1 SE 37 44 20 24 1015.0 1014.4 0.0
25/12:30pm 26.4 22.0 18.5 62 5.0 SSE 39 50 21 27 1015.3 1014.8 0.0
25/12:00pm 26.6 21.8 18.5 61 5.2 SSE 41 48 22 26 1015.6 1015.1 0.0
25/11:30am 26.9 23.3 19.3 63 4.9 SSE 37 46 20 25 1015.8 1015.3 0.0
25/11:00am 26.6 23.1 18.7 62 5.1 SSE 35 44 19 24 1016.3 1015.8 0.0
25/10:31am 26.5 23.6 18.9 63 4.9 SSE 32 50 17 27 1016.6 1016.1 0.0
25/10:30am 26.5 23.4 18.9 63 4.9 SSE 33 50 18 27 1016.5 1016.0 0.0
25/10:00am 26.2 23.2 18.6 63 4.9 SSE 32 43 17 23 1016.6 1016.1 0.0
25/09:30am 26.3 23.3 18.7 63 4.9 SSE 32 41 17 22 1016.7 1016.2 0.0
25/09:00am 26.0 24.0 19.2 66 4.4 SSE 28 39 15 21 1016.7 1016.2 0.0
25/08:30am 25.0 22.2 18.2 66 4.3 S 30 41 16 22 1016.7 1016.2 0.0
25/08:00am 24.3 21.9 18.2 68 3.8 S 28 39 15 21 1016.8 1016.3 0.0
25/07:30am 23.9 22.0 18.5 72 3.4 S 26 37 14 20 1016.6 1016.1 0.0
25/07:00am 24.3 22.1 18.7 71 3.6 SSE 28 37 15 20 1016.2 1015.7 0.0
25/06:30am 23.4 21.8 19.3 78 2.6 S 26 35 14 19 1016.1 1015.6 0.0
25/06:00am 23.2 21.1 18.9 77 2.7 S 28 35 15 19 1016.0 1015.5 0.0
25/05:30am 23.3 22.5 18.4 74 3.1 SSE 20 30 11 16 1016.0 1015.5 0.0
25/05:00am 23.7 20.0 17.0 66 4.1 SE 32 41 17 22 1015.5 1015.0 0.0
25/04:30am 23.7 20.9 17.2 67 4.0 SE 28 39 15 21 1015.2 1014.7 0.0
25/04:00am 23.6 21.1 17.1 67 4.0 SE 26 32 14 17 1015.3 1014.8 0.0
25/03:30am 23.7 20.2 17.4 68 3.9 SE 32 37 17 20 1014.9 1014.3 0.0
25/03:00am 23.8 21.1 17.5 68 3.9 SE 28 33 15 18 1014.9 1014.3 0.0
25/02:30am 24.0 21.7 18.4 71 3.5 ESE 28 33 15 18 1015.0 1014.4 0.0
25/02:00am 23.9 21.0 17.9 69 3.8 ESE 30 35 16 19 1015.2 1014.7 0.0
25/01:30am 23.8 21.2 17.8 69 3.8 ESE 28 33 15 18 1015.4 1014.9 0.0
25/01:00am 23.8 21.0 17.3 67 4.0 ESE 28 33 15 18 1015.5 1015.0 0.0
25/12:30am 23.9 22.0 18.5 72 3.4 ESE 26 30 14 16 1015.8 1015.3 0.0
25/12:00am 23.7 22.9 18.4 72 3.3 ESE 20 24 11 13 1015.9 1015.4 0.0
 
Date/Time
EST
Temp
°C
App
Temp
°C
Dew
Point
°C
Rel
Hum
%
Delta-T
°C
Wind Press
QNH
hPa
Press
MSL
hPa
Rain since
9am
mm
Dir  Spd
km/h
Gust
km/h
Spd
kts
Gust
kts
24/11:30pm 23.6 21.8 17.8 70 3.6 ESE 24 30 13 16 1016.2 1015.7 0.0
24/11:00pm 23.8 21.2 17.8 69 3.8 ESE 28 33 15 18 1016.5 1016.0 0.0
24/10:30pm 24.0 21.2 18.2 70 3.7 ESE 30 37 16 20 1016.6 1016.1 0.0
24/10:00pm 24.1 21.3 18.1 69 3.8 ESE 30 37 16 20 1016.9 1016.4 0.0
24/09:30pm 24.1 20.9 18.1 69 3.8 ESE 32 37 17 20 1017.1 1016.6 0.0
24/09:00pm 24.2 21.1 18.4 70 3.7 ESE 32 43 17 23 1017.2 1016.7 0.0
24/08:30pm 24.3 20.8 18.0 68 4.0 ESE 33 39 18 21 1017.2 1016.7 0.0
24/08:00pm 24.4 21.5 18.8 71 3.6 ESE 32 39 17 21 1017.0 1016.5 0.0
24/07:30pm 24.3 21.1 18.7 71 3.6 ESE 33 39 18 21 1016.8 1016.3 0.0
24/07:00pm 24.4 21.3 18.8 71 3.6 ESE 33 41 18 22 1016.5 1016.0 0.0
24/06:30pm 24.5 21.0 18.7 70 3.7 ESE 35 39 19 21 1016.5 1016.0 0.0
24/06:00pm 24.9 21.1 18.1 66 4.3 ESE 35 39 19 21 1016.1 1015.6 0.0
24/05:30pm 25.1 21.1 18.5 67 4.2 ESE 37 43 20 23 1016.0 1015.5 0.0
24/05:00pm 25.5 22.1 18.9 67 4.2 ESE 35 41 19 22 1016.0 1015.5 0.0
24/04:30pm 25.8 22.7 19.7 69 4.0 ESE 35 41 19 22 1016.0 1015.5 0.0
24/04:00pm 25.7 22.3 19.1 67 4.2 ESE 35 41 19 22 1016.1 1015.6 0.0
24/03:30pm 26.1 23.0 19.7 68 4.2 SE 35 43 19 23 1016.1 1015.6 0.0
24/03:00pm 26.2 22.8 19.8 68 4.2 SE 37 44 20 24 1016.2 1015.7 0.0
24/02:30pm 26.6 23.5 19.7 66 4.5 SE 35 44 19 24 1016.5 1016.0 0.0
24/02:00pm 26.9 23.5 19.8 65 4.6 SE 37 44 20 24 1016.5 1016.0 0.0
24/01:30pm 27.1 23.3 19.7 64 4.8 SE 39 46 21 25 1016.8 1016.3 0.0
24/01:00pm 27.3 23.7 20.1 64 4.7 SSE 39 46 21 25 1016.9 1016.4 0.0
24/12:30pm 27.8 25.3 20.1 63 5.1 SE 33 44 18 24 1017.2 1016.7 0.0
24/12:00pm 28.3 27.1 20.1 61 5.4 SE 26 33 14 18 1017.7 1017.2 0.0
24/11:30am 28.3 26.3 19.2 57 5.9 SE 28 33 15 18 1017.9 1017.4 0.0
24/11:00am 28.5 26.8 18.9 56 6.2 SE 26 30 14 16 1018.2 1017.7 0.0
24/10:30am 28.3 27.0 19.0 57 6.0 SE 24 28 13 15 1018.5 1018.0 0.0
24/10:00am 28.2 26.6 19.2 58 5.8 SE 26 32 14 17 1018.7 1018.2 0.0
24/09:30am 27.9 26.2 19.7 61 5.4 SE 28 35 15 19 1018.8 1018.3 0.0
24/09:00am 27.7 26.0 19.8 62 5.2 SE 28 33 15 18 1018.6 1018.1 0.0
24/08:30am 27.4 25.3 18.9 59 5.5 SE 28 32 15 17 1018.6 1018.1 0.0
24/08:00am 26.7 24.5 18.6 61 5.2 SE 28 35 15 19 1018.3 1017.8 0.0
24/07:30am 25.7 23.8 18.6 65 4.5 ESE 26 30 14 16 1018.1 1017.6 0.0
24/07:00am 24.8 22.7 18.0 66 4.3 SE 26 33 14 18 1017.9 1017.4 0.0
24/06:30am 25.0 22.1 18.0 65 4.4 ESE 30 35 16 19 1017.6 1017.1 0.0
24/06:00am 24.0 20.4 17.3 66 4.2 ESE 32 39 17 21 1017.0 1016.5 0.0
24/05:30am 23.8 20.4 16.8 65 4.3 SE 30 37 16 20 1016.7 1016.2 0.0
24/05:00am 24.0 20.1 16.5 63 4.6 SE 32 41 17 22 1016.5 1016.0 0.0
24/04:30am 24.0 21.5 17.0 65 4.3 SE 26 32 14 17 1016.6 1016.1 0.0
24/04:00am 23.8 20.0 16.6 64 4.4 SE 32 39 17 21 1016.7 1016.2 0.0
24/03:30am 23.9 20.3 17.2 66 4.2 ESE 32 37 17 20 1016.6 1016.1 0.0
24/03:00am 24.0 20.4 17.3 66 4.2 ESE 32 39 17 21 1016.6 1016.1 0.0
24/02:30am 24.2 20.3 17.9 68 4.0 ESE 35 41 19 22 1016.7 1016.2 0.0
24/02:00am 24.3 21.3 18.7 71 3.6 ESE 32 39 17 21 1016.8 1016.3 0.0
24/01:30am 24.6 22.4 18.8 70 3.7 SE 28 35 15 19 1017.2 1016.7 0.0
24/01:00am 24.3 20.8 17.5 66 4.2 SE 32 37 17 20 1017.4 1016.9 0.0
24/12:30am 24.3 20.5 18.2 68 3.9 SE 35 43 19 23 1017.5 1017.0 0.0
24/12:00am 24.4 21.3 18.8 71 3.6 SE 33 41 18 22 1017.8 1017.3 0.0
 
Date/Time
EST
Temp
°C
App
Temp
°C
Dew
Point
°C
Rel
Hum
%
Delta-T
°C
Wind Press
QNH
hPa
Press
MSL
hPa
Rain since
9am
mm
Dir  Spd
km/h
Gust
km/h
Spd
kts
Gust
kts
23/11:30pm 24.5 20.7 17.2 63 4.5 ESE 33 44 18 24 1018.0 1017.5 0.0
23/11:00pm 24.4 20.2 18.1 68 4.0 ESE 37 43 20 23 1018.2 1017.7 0.0
23/10:30pm 24.4 20.9 18.8 71 3.6 ESE 35 43 19 23 1018.4 1017.9 0.0
23/10:00pm 24.5 20.7 18.0 67 4.1 ESE 35 43 19 23 1018.5 1018.0 0.0
23/09:30pm 24.6 19.8 17.6 65 4.4 ESE 39 46 21 25 1018.4 1017.9 0.0
23/09:00pm 24.5 19.8 17.7 66 4.3 ESE 39 48 21 26 1018.8 1018.3 0.0
23/08:30pm 24.6 20.2 18.5 69 3.9 ESE 39 50 21 27 1018.5 1018.0 0.0

Other Formats:

Comma delimited format used in spreadsheet applications
http://www.bom.gov.au/fwo/IDQ60801/IDQ60801.94594.axf

JavaScript Object Notation format (JSON) in row-major order
http://www.bom.gov.au/fwo/IDQ60801/IDQ60801.94594.json